createdAt,value
2023-03-24T00:00:45.903Z,94029
2023-03-24T00:04:10.886Z,94026
2023-03-24T00:07:36.094Z,94025
2023-03-24T00:11:01.258Z,94022
2023-03-24T00:14:26.465Z,94028
2023-03-24T00:17:51.679Z,94023
2023-03-24T00:21:16.851Z,94027
2023-03-24T00:24:42.080Z,94019
2023-03-24T00:28:07.363Z,94021
2023-03-24T00:31:32.524Z,94026
2023-03-24T00:34:58.445Z,94025
2023-03-24T00:38:23.588Z,94021
2023-03-24T00:41:48.796Z,94026
2023-03-24T00:45:13.994Z,94019
2023-03-24T00:48:39.195Z,94012
2023-03-24T00:52:04.416Z,94007
2023-03-24T00:55:29.573Z,94014
2023-03-24T00:58:54.771Z,94015
2023-03-24T01:02:19.984Z,94011
2023-03-24T01:05:45.154Z,94009
2023-03-24T01:09:10.394Z,94012
2023-03-24T01:12:35.581Z,94014
2023-03-24T01:16:00.771Z,94012
2023-03-24T01:19:25.946Z,94022
2023-03-24T01:22:51.127Z,94016
2023-03-24T01:26:16.369Z,94019
2023-03-24T01:29:41.527Z,94021
2023-03-24T01:33:06.772Z,94019
2023-03-24T01:36:31.986Z,94016
2023-03-24T01:39:57.184Z,94012
2023-03-24T01:43:22.408Z,94012
2023-03-24T01:46:47.590Z,94008
2023-03-24T01:50:12.847Z,94004
2023-03-24T01:53:38.070Z,94000
2023-03-24T01:57:03.285Z,93999
2023-03-24T02:00:28.494Z,93990
2023-03-24T02:03:53.683Z,93981
2023-03-24T02:07:18.869Z,93971
2023-03-24T02:10:44.200Z,93960
2023-03-24T02:14:09.294Z,93961
2023-03-24T02:17:34.546Z,93955
2023-03-24T02:20:59.681Z,93950
2023-03-24T02:24:24.896Z,93948
2023-03-24T02:27:50.107Z,93944
2023-03-24T02:31:15.356Z,93943
2023-03-24T02:34:40.579Z,93936
2023-03-24T02:38:05.743Z,93947
2023-03-24T02:41:30.956Z,93944
2023-03-24T02:44:56.157Z,93936
2023-03-24T02:48:21.362Z,93935
2023-03-24T02:51:46.636Z,93923
2023-03-24T02:55:11.828Z,93923
2023-03-24T02:58:37.021Z,93919
2023-03-24T03:02:02.248Z,93923
2023-03-24T03:05:27.454Z,93903
2023-03-24T03:08:52.788Z,93902
2023-03-24T03:12:17.867Z,93900
2023-03-24T03:15:43.120Z,93884
2023-03-24T03:19:08.315Z,93879
2023-03-24T03:22:33.503Z,93875
2023-03-24T03:25:58.734Z,93877
2023-03-24T03:29:23.935Z,93865
2023-03-24T03:32:49.246Z,93861
2023-03-24T03:36:14.349Z,93850
2023-03-24T03:39:39.535Z,93843
2023-03-24T03:43:04.759Z,93841
2023-03-24T03:46:30.016Z,93842
2023-03-24T03:49:55.215Z,93843
2023-03-24T03:53:20.413Z,93848
2023-03-24T03:56:45.639Z,93835
2023-03-24T04:00:10.862Z,93838
2023-03-24T04:03:36.120Z,93840
2023-03-24T04:07:01.307Z,93840
2023-03-24T04:10:26.528Z,93835
2023-03-24T04:13:51.758Z,93824
2023-03-24T04:17:16.960Z,93823
2023-03-24T04:20:42.146Z,93828
2023-03-24T04:24:07.374Z,93829
2023-03-24T04:27:32.567Z,93829
2023-03-24T04:30:57.810Z,93827
2023-03-24T04:34:23.043Z,93829
2023-03-24T04:37:48.232Z,93820
2023-03-24T04:41:14.630Z,93814
2023-03-24T04:44:38.792Z,93819
2023-03-24T04:48:04.378Z,93821
2023-03-24T04:51:29.542Z,93823
2023-03-24T04:54:54.725Z,93825
2023-03-24T04:58:19.937Z,93812
2023-03-24T05:01:45.184Z,93810
2023-03-24T05:05:10.394Z,93799
2023-03-24T05:08:35.638Z,93795
2023-03-24T05:12:01.865Z,93790
2023-03-24T05:15:26.123Z,93789
2023-03-24T05:18:51.373Z,93779
2023-03-24T05:22:16.572Z,93779
2023-03-24T05:25:41.942Z,93776
2023-03-24T05:29:07.064Z,93773
2023-03-24T05:32:32.278Z,93774
2023-03-24T05:35:57.498Z,93762
2023-03-24T05:39:22.690Z,93753
2023-03-24T05:42:47.965Z,93761
2023-03-24T05:46:13.163Z,93765
2023-03-24T05:49:38.356Z,93757
2023-03-24T05:53:03.576Z,93756
2023-03-24T05:56:28.886Z,93766
2023-03-24T05:59:56.312Z,93771
2023-03-24T06:03:21.657Z,93777
2023-03-24T06:06:46.817Z,93779
2023-03-24T06:10:12.046Z,93789
2023-03-24T06:13:37.259Z,93783
2023-03-24T06:17:02.570Z,93778
2023-03-24T06:20:27.763Z,93782
2023-03-24T06:23:52.923Z,93783
2023-03-24T06:27:18.052Z,93783
2023-03-24T06:30:43.212Z,93784
2023-03-24T06:34:08.420Z,93790
2023-03-24T06:37:33.518Z,93789
2023-03-24T06:40:58.679Z,93805
2023-03-24T06:44:23.857Z,93801
2023-03-24T06:47:49.090Z,93809
2023-03-24T06:51:14.288Z,93805
2023-03-24T06:54:41.030Z,93808
2023-03-24T06:58:04.598Z,93817
2023-03-24T07:01:29.821Z,93818
2023-03-24T07:04:54.981Z,93833
2023-03-24T07:11:45.354Z,93835
2023-03-24T07:15:10.525Z,93842
2023-03-24T07:18:35.659Z,93851
2023-03-24T07:22:00.864Z,93851
2023-03-24T07:25:26.033Z,93863
2023-03-24T07:28:51.132Z,93847
2023-03-24T07:32:16.287Z,93847
2023-03-24T07:35:41.449Z,93834
2023-03-24T07:39:06.601Z,93832
2023-03-24T07:42:31.768Z,93837
2023-03-24T07:45:56.926Z,93837
2023-03-24T07:49:22.032Z,93832
2023-03-24T07:52:47.169Z,93839
2023-03-24T07:56:12.347Z,93850
2023-03-24T07:59:37.534Z,93851
2023-03-24T08:03:02.830Z,93847
2023-03-24T08:06:27.855Z,93839
2023-03-24T08:09:52.997Z,93838
2023-03-24T08:13:18.120Z,93835
2023-03-24T08:16:43.369Z,93821
2023-03-24T08:20:08.451Z,93850
2023-03-24T08:23:33.633Z,93844
2023-03-24T08:26:58.793Z,93846
2023-03-24T08:30:23.936Z,93856
2023-03-24T08:33:49.136Z,93853
2023-03-24T08:37:14.277Z,93835
2023-03-24T08:40:39.474Z,93854
2023-03-24T08:44:06.795Z,93852
2023-03-24T08:47:29.800Z,93854
2023-03-24T08:50:55.019Z,93840
2023-03-24T08:54:20.153Z,93847
2023-03-24T08:57:45.362Z,93838
2023-03-24T09:01:10.577Z,93833
2023-03-24T09:04:35.766Z,93843
2023-03-24T09:08:00.942Z,93836
2023-03-24T09:11:26.109Z,93830
2023-03-24T09:14:51.338Z,93835
2023-03-24T09:18:16.537Z,93850
2023-03-24T09:21:41.695Z,93852
2023-03-24T09:25:06.883Z,93860
2023-03-24T09:28:32.027Z,93861
2023-03-24T09:31:57.183Z,93848
2023-03-24T09:35:22.423Z,93855
2023-03-24T09:38:47.586Z,93843
2023-03-24T09:42:12.808Z,93852
2023-03-24T09:45:38.027Z,93840
2023-03-24T09:49:03.180Z,93840
2023-03-24T09:52:28.375Z,93826
2023-03-24T09:55:53.489Z,93833
2023-03-24T09:59:18.654Z,93827
2023-03-24T10:02:43.855Z,93826
2023-03-24T10:06:08.955Z,93813
2023-03-24T10:09:34.136Z,93823
2023-03-24T10:12:59.313Z,93807
2023-03-24T10:16:24.596Z,93815
2023-03-24T10:19:49.661Z,93806
2023-03-24T10:23:14.821Z,93823
2023-03-24T10:26:39.993Z,93810
2023-03-24T10:30:05.216Z,93820
2023-03-24T10:33:30.401Z,93822
2023-03-24T10:36:55.574Z,93830
2023-03-24T10:40:20.848Z,93830
2023-03-24T10:43:46.064Z,93819
2023-03-24T10:47:11.336Z,93818
2023-03-24T10:50:36.680Z,93840
2023-03-24T10:54:03.373Z,93823
2023-03-24T10:57:27.046Z,93822
2023-03-24T11:00:52.290Z,93820
2023-03-24T11:04:17.509Z,93824
2023-03-24T11:07:42.754Z,93820
2023-03-24T11:11:07.923Z,93819
2023-03-24T11:14:33.267Z,93817
2023-03-24T11:17:58.521Z,93818
2023-03-24T11:21:23.742Z,93816
2023-03-24T11:24:49.031Z,93812
2023-03-24T11:28:14.209Z,93809
2023-03-24T11:31:39.440Z,93818
2023-03-24T11:35:04.731Z,93820
2023-03-24T11:38:29.924Z,93805
2023-03-24T11:41:55.207Z,93807
2023-03-24T11:45:20.435Z,93812
2023-03-24T11:48:45.689Z,93800
2023-03-24T11:52:10.930Z,93802
2023-03-24T11:55:36.142Z,93798
2023-03-24T11:59:01.424Z,93791
2023-03-24T12:02:26.642Z,93783
2023-03-24T12:05:52.024Z,93783
2023-03-24T12:09:17.104Z,93795
2023-03-24T12:12:42.335Z,93793
2023-03-24T12:16:07.625Z,93789
2023-03-24T12:19:32.784Z,93792
2023-03-24T12:22:58.024Z,93785
2023-03-24T12:26:23.238Z,93775
2023-03-24T12:29:48.534Z,93787
2023-03-24T12:33:13.808Z,93804
2023-03-24T12:36:38.994Z,93794
2023-03-24T12:40:04.195Z,93806
2023-03-24T12:43:29.404Z,93824
2023-03-24T12:46:54.748Z,93850
2023-03-24T12:50:19.977Z,93869
2023-03-24T12:53:45.208Z,93871
2023-03-24T12:57:10.552Z,93884
2023-03-24T13:00:35.940Z,93877
2023-03-24T13:04:01.230Z,93884
2023-03-24T13:07:26.482Z,93900
2023-03-24T13:10:51.733Z,93910
2023-03-24T13:14:18.325Z,93906
2023-03-24T13:17:45.039Z,93884
2023-03-24T13:21:08.831Z,93885
2023-03-24T13:24:34.186Z,93892
2023-03-24T13:27:59.404Z,93902
2023-03-24T13:31:24.670Z,93913
2023-03-24T13:34:49.883Z,93916
2023-03-24T13:38:15.052Z,93910
2023-03-24T13:41:40.482Z,93914
2023-03-24T13:45:05.650Z,93911
2023-03-24T13:48:30.969Z,93914
2023-03-24T13:51:56.195Z,93917
2023-03-24T13:55:21.474Z,93910
2023-03-24T13:58:46.743Z,93899
2023-03-24T14:02:11.972Z,93896
2023-03-24T14:05:37.247Z,93876
2023-03-24T14:09:02.547Z,93885
2023-03-24T14:12:27.769Z,93875
2023-03-24T14:15:53.370Z,93872
2023-03-24T14:19:18.280Z,93874
2023-03-24T14:22:43.496Z,93873
2023-03-24T14:26:08.712Z,93859
2023-03-24T14:29:33.974Z,93863
2023-03-24T14:32:59.350Z,93863
2023-03-24T14:36:24.519Z,93848
2023-03-24T14:39:49.726Z,93858
2023-03-24T14:43:14.993Z,93849
2023-03-24T14:46:40.289Z,93861
2023-03-24T14:50:05.600Z,93856
2023-03-24T14:53:30.642Z,93860
2023-03-24T14:56:55.911Z,93849
2023-03-24T15:00:21.173Z,93852
2023-03-24T15:03:46.408Z,93847
2023-03-24T15:42:08.086Z,93882
2023-03-24T15:45:33.338Z,93882
2023-03-24T15:48:58.552Z,93893
2023-03-24T15:52:23.807Z,93878
2023-03-24T15:55:49.006Z,93869
2023-03-24T15:59:14.318Z,93869
2023-03-24T16:02:39.497Z,93880
2023-03-24T16:06:04.676Z,93889
2023-03-24T16:09:29.942Z,93887
2023-03-24T16:12:55.175Z,93889
2023-03-24T16:16:20.467Z,93892
2023-03-24T16:19:45.661Z,93894
2023-03-24T16:23:10.920Z,93900
2023-03-24T16:26:36.114Z,93893
2023-03-24T16:30:01.403Z,93898
2023-03-24T16:33:26.737Z,93904
2023-03-24T16:36:51.861Z,93902
2023-03-24T16:40:17.080Z,93908
2023-03-24T16:43:42.274Z,93908
2023-03-24T16:47:07.553Z,93914
2023-03-24T16:50:32.804Z,93900
2023-03-24T16:53:58.026Z,93902
2023-03-24T16:57:23.319Z,93898
2023-03-24T17:00:48.895Z,93913
2023-03-24T17:04:13.847Z,93916
2023-03-24T17:07:39.161Z,93920
2023-03-24T17:11:04.405Z,93914
2023-03-24T17:14:29.636Z,93924
2023-03-24T17:17:54.846Z,93914
2023-03-24T17:21:20.022Z,93917
2023-03-24T17:24:45.225Z,93920
2023-03-24T17:28:10.393Z,93913
2023-03-24T17:31:35.660Z,93921
2023-03-24T17:35:00.849Z,93920
2023-03-24T17:38:26.050Z,93922
2023-03-24T17:41:51.266Z,93921
2023-03-24T17:45:16.469Z,93926
2023-03-24T17:48:42.338Z,93922
2023-03-24T17:52:06.796Z,93910
2023-03-24T17:55:31.986Z,93913
2023-03-24T17:58:57.216Z,93915
2023-03-24T18:02:22.461Z,93923
2023-03-24T18:05:47.674Z,93920
2023-03-24T18:09:12.873Z,93924
2023-03-24T18:12:38.070Z,93927
2023-03-24T18:16:09.927Z,93929
2023-03-24T18:19:28.667Z,93932
2023-03-24T18:22:53.791Z,93930
2023-03-24T18:26:19.018Z,93932
2023-03-24T18:29:44.223Z,93935
2023-03-24T18:33:09.756Z,93933
2023-03-24T18:36:34.687Z,93935
2023-03-24T18:39:59.979Z,93934
2023-03-24T18:43:25.804Z,93939
2023-03-24T18:46:51.212Z,93946
2023-03-24T18:50:16.510Z,93942
2023-03-24T18:53:41.711Z,93952
2023-03-24T18:57:06.950Z,93948
2023-03-24T19:00:32.143Z,93949
2023-03-24T19:03:57.346Z,93945
2023-03-24T19:07:22.608Z,93940
2023-03-24T19:10:47.830Z,93944
2023-03-24T19:14:13.059Z,93954
2023-03-24T19:17:38.308Z,93955
2023-03-24T19:21:03.447Z,93959
2023-03-24T19:24:28.803Z,93960
2023-03-24T19:27:53.942Z,93955
2023-03-24T19:31:19.193Z,93960
2023-03-24T19:34:44.427Z,93970
2023-03-24T19:38:09.710Z,93965
2023-03-24T19:41:35.006Z,93967
2023-03-24T19:45:00.196Z,93964
2023-03-24T19:48:25.493Z,93967
2023-03-24T19:51:50.713Z,93964
2023-03-24T19:55:15.922Z,93970
2023-03-24T19:58:41.126Z,93968
2023-03-24T20:02:06.415Z,93970
2023-03-24T20:05:31.592Z,93973
2023-03-24T20:08:56.818Z,93973
2023-03-24T20:12:22.026Z,93977
2023-03-24T20:15:47.325Z,93967
2023-03-24T20:19:12.528Z,93969
2023-03-24T20:22:37.758Z,93971
2023-03-24T20:26:03.014Z,93971
2023-03-24T20:29:28.237Z,93990
2023-03-24T20:32:53.524Z,93989
2023-03-24T20:36:18.741Z,93985
2023-03-24T20:39:43.944Z,93983
2023-03-24T20:43:09.147Z,93983
2023-03-24T20:46:34.354Z,93982
2023-03-24T20:49:59.625Z,93983
2023-03-24T20:53:24.925Z,93984
2023-03-24T20:56:50.077Z,93984
2023-03-24T21:00:15.267Z,93995
2023-03-24T21:03:40.509Z,93993
2023-03-24T21:07:05.819Z,93992
2023-03-24T21:10:31.006Z,93991
2023-03-24T21:13:56.259Z,93980
2023-03-24T21:17:21.487Z,93979
2023-03-24T21:20:46.756Z,93969
2023-03-24T21:24:12.232Z,93970
2023-03-24T21:27:37.279Z,93973
2023-03-24T21:31:02.567Z,93967
2023-03-24T21:34:27.743Z,93970
2023-03-24T21:37:52.958Z,93962
2023-03-24T21:41:18.200Z,93962
2023-03-24T21:44:43.377Z,93964
2023-03-24T21:48:08.599Z,93971
2023-03-24T21:51:33.884Z,93969
2023-03-24T21:54:59.026Z,93968
2023-03-24T21:58:24.271Z,93973
2023-03-24T22:01:49.509Z,93972
2023-03-24T22:05:14.744Z,93967
2023-03-24T22:08:40.004Z,93958
2023-03-24T22:12:05.229Z,93952
2023-03-24T22:15:32.772Z,93954
2023-03-24T22:18:55.742Z,93952
2023-03-24T22:22:21.005Z,93960
2023-03-24T22:25:46.223Z,93953
2023-03-24T22:29:11.487Z,93955
2023-03-24T22:32:36.868Z,93954
2023-03-24T22:36:01.944Z,93959
2023-03-24T22:39:27.164Z,93961
2023-03-24T22:42:52.439Z,93971
2023-03-24T22:46:17.720Z,93968
2023-03-24T22:49:42.956Z,93974
2023-03-24T22:53:08.107Z,93970
2023-03-24T22:56:33.450Z,93976
2023-03-24T22:59:58.591Z,93973
2023-03-24T23:03:23.858Z,93975
2023-03-24T23:06:49.031Z,93982
2023-03-24T23:10:14.219Z,93976
2023-03-24T23:13:39.475Z,93980
2023-03-24T23:17:04.735Z,93985
2023-03-24T23:20:30.170Z,93992
2023-03-24T23:23:55.481Z,93994
2023-03-24T23:27:20.604Z,93985
2023-03-24T23:30:45.870Z,93991
2023-03-24T23:34:11.115Z,93982
2023-03-24T23:37:36.376Z,93977
2023-03-24T23:41:01.700Z,93980
2023-03-24T23:44:26.872Z,93986
2023-03-24T23:47:52.139Z,93989
2023-03-24T23:51:17.293Z,93985
2023-03-24T23:54:42.547Z,93987
2023-03-24T23:58:07.775Z,93984
